Time;durP1;ratioP1;P1;durP2;ratioP2;P2;SDS_P1;SDS_P2;PMS_P1;PMS_P2;Temp;Humidity;BMP_temperature;BMP_pressure;BME280_temperature;BME280_humidity;BME280_pressure;Samples;Min_cycle;Max_cycle;Signal;HPM_P1;HPM_P2
2021/06/01 00:01:48;;;;;;;6.53;4.30;;;;;;;14.35;69.67;100457.50;5037322;28;20422;-70
2021/06/01 00:04:15;;;;;;;12.13;4.97;;;;;;;14.33;69.78;100451.41;5035935;28;20435;-70
2021/06/01 00:06:43;;;;;;;10.18;4.38;;;;;;;14.33;69.48;100443.34;5036232;28;20506;-71
2021/06/01 00:09:12;;;;;;;8.57;4.75;;;;;;;14.34;69.89;100450.44;5037070;28;20096;-71
2021/06/01 00:11:40;;;;;;;8.47;5.00;;;;;;;14.36;69.24;100448.47;5037443;28;20123;-70
2021/06/01 00:14:23;;;;;;;9.80;4.97;;;;;;;14.43;68.56;100455.13;5037079;28;20053;-70
2021/06/01 00:16:50;;;;;;;6.15;4.72;;;;;;;14.45;68.20;100453.19;5037101;28;20132;-70
2021/06/01 00:19:17;;;;;;;8.10;4.65;;;;;;;14.47;67.59;100455.75;5036894;28;20049;-70
2021/06/01 00:21:44;;;;;;;8.18;4.50;;;;;;;14.53;66.65;100448.13;5036854;28;20057;-71
2021/06/01 00:24:13;;;;;;;9.27;4.10;;;;;;;14.59;64.97;100448.66;5037002;28;20053;-70
2021/06/01 00:26:41;;;;;;;8.05;4.13;;;;;;;14.71;63.83;100455.78;5036864;28;20127;-70
2021/06/01 00:29:08;;;;;;;9.00;4.50;;;;;;;14.70;64.20;100451.38;5036755;28;20049;-71
2021/06/01 00:31:36;;;;;;;8.30;4.65;;;;;;;14.74;64.61;100454.72;5052101;28;20050;-70
2021/06/01 00:34:04;;;;;;;7.38;4.28;;;;;;;14.66;65.00;100455.28;5036740;28;20053;-70
2021/06/01 00:36:31;;;;;;;8.07;4.80;;;;;;;14.68;64.95;100456.03;5035854;28;20046;-70
2021/06/01 00:38:58;;;;;;;7.45;4.85;;;;;;;14.70;64.29;100454.06;5036571;28;20052;-70
2021/06/01 00:41:25;;;;;;;7.72;4.57;;;;;;;14.73;63.43;100453.84;5036559;28;20108;-70
2021/06/01 00:43:52;;;;;;;6.63;4.47;;;;;;;14.70;63.70;100458.59;5036715;28;20079;-71
2021/06/01 00:46:18;;;;;;;8.70;4.50;;;;;;;14.71;63.41;100457.63;5036175;28;20664;-70
2021/06/01 00:48:45;;;;;;;9.63;5.00;;;;;;;14.64;63.75;100441.09;5036591;28;20072;-71
2021/06/01 00:51:12;;;;;;;7.57;4.43;;;;;;;14.66;63.87;100449.91;5036396;28;20053;-71
2021/06/01 00:53:38;;;;;;;8.88;4.57;;;;;;;14.61;64.01;100446.69;5036303;28;20435;-70
2021/06/01 00:56:07;;;;;;;10.18;4.90;;;;;;;14.59;63.51;100454.03;5036197;28;20076;-70
2021/06/01 00:58:34;;;;;;;8.52;4.40;;;;;;;14.40;63.94;100439.25;5035427;28;20169;-70
2021/06/01 01:03:39;;;;;;;6.20;3.60;;;;;;;14.59;60.21;100452.19;5036161;28;20060;-70
2021/06/01 01:06:23;;;;;;;8.68;3.95;;;;;;;14.72;59.71;100448.59;5036132;28;20053;-70
2021/06/01 01:08:54;;;;;;;12.35;4.07;;;;;;;14.76;59.76;100455.50;5036071;28;20111;-70
2021/06/01 01:11:40;;;;;;;5.88;4.05;;;;;;;14.76;57.90;100456.34;5035754;28;20570;-70
2021/06/01 01:14:23;;;;;;;4.22;3.60;;;;;;;14.76;58.77;100455.50;5035933;28;20060;-70
2021/06/01 01:16:59;;;;;;;6.68;3.47;;;;;;;14.80;58.48;100457.84;5034854;28;20097;-70
2021/06/01 01:19:47;;;;;;;6.90;3.90;;;;;;;14.67;58.94;100451.63;5050378;28;20057;-70
2021/06/01 01:22:15;;;;;;;7.80;3.38;;;;;;;14.64;58.41;100457.19;5055999;28;20049;-70
2021/06/01 01:25:01;;;;;;;6.55;3.40;;;;;;;14.68;57.27;100447.97;5055543;28;20495;-70
2021/06/01 01:28:25;;;;;;;6.80;3.58;;;;;;;14.64;58.07;100462.56;5055690;28;20419;-70
2021/06/01 01:30:57;;;;;;;4.50;2.80;;;;;;;14.59;56.55;100443.28;5013707;28;20054;-70
2021/06/01 01:33:39;;;;;;;7.03;3.00;;;;;;;14.74;55.84;100455.59;5013441;28;20049;-71
2021/06/01 01:36:10;;;;;;;4.70;3.05;;;;;;;14.60;58.04;100453.03;5044986;28;20106;-70
2021/06/01 01:38:38;;;;;;;;;;;;;;;14.57;58.04;100456.81;5055894;28;20049;-71
2021/06/01 01:41:11;;;;;;;6.25;3.38;;;;;;;14.51;58.27;100441.16;5055504;28;19932;-70
2021/06/01 01:43:41;;;;;;;6.35;3.03;;;;;;;14.57;56.78;100445.19;5054325;28;20095;-71
2021/06/01 01:46:15;;;;;;;8.02;3.03;;;;;;;14.49;57.55;100441.25;5070660;28;20084;-70
2021/06/01 01:49:02;;;;;;;7.10;3.17;;;;;;;14.51;57.19;100446.50;5055279;28;20063;-70
2021/06/01 01:51:34;;;;;;;4.53;2.83;;;;;;;14.56;55.85;100451.53;5055456;28;20052;-70
2021/06/01 01:54:07;;;;;;;5.43;2.70;;;;;;;14.55;55.56;100448.03;5055319;28;20056;-69
2021/06/01 01:56:38;;;;;;;6.18;2.88;;;;;;;14.54;56.01;100451.66;5056816;28;20049;-70
2021/06/01 01:59:08;;;;;;;5.95;2.65;;;;;;;14.42;57.04;100445.34;5055731;28;20048;-70
2021/06/01 02:01:36;;;;;;;5.53;3.13;;;;;;;14.40;57.00;100450.81;5056737;28;20056;-70
2021/06/01 02:04:04;;;;;;;4.95;3.05;;;;;;;14.29;57.37;100448.09;5056378;28;20057;-70
2021/06/01 02:06:31;;;;;;;10.55;2.90;;;;;;;14.25;57.74;100449.25;5054761;28;20045;-70
2021/06/01 02:08:58;;;;;;;5.88;3.20;;;;;;;14.20;58.29;100444.22;5055091;28;20472;-70
2021/06/01 02:11:25;;;;;;;5.05;3.00;;;;;;;14.16;58.58;100448.09;5055048;28;20056;-70
2021/06/01 02:14:02;;;;;;;7.85;3.13;;;;;;;14.05;59.02;100446.19;5053961;28;20341;-70
2021/06/01 02:16:31;;;;;;;3.53;2.67;;;;;;;14.15;58.02;100445.53;5054920;28;20496;-71
2021/06/01 02:18:58;;;;;;;7.55;3.03;;;;;;;14.04;57.91;100432.84;5044381;28;20049;-70
2021/06/01 02:21:46;;;;;;;5.22;3.15;;;;;;;14.08;57.96;100450.47;5034900;28;20053;-70
2021/06/01 02:24:30;;;;;;;6.80;3.30;;;;;;;13.99;58.72;100441.25;5034326;28;20045;-69
2021/06/01 02:27:22;;;;;;;6.60;3.30;;;;;;;14.08;57.13;100450.47;5035129;28;20103;-69
2021/06/01 02:30:03;;;;;;;4.00;2.50;;;;;;;13.98;57.89;100440.41;5035031;28;20053;-70
2021/06/01 02:32:35;;;;;;;4.70;2.90;;;;;;;13.99;58.37;100447.47;5033985;28;20049;-69
2021/06/01 02:35:08;;;;;;;7.18;2.72;;;;;;;14.02;57.25;100446.41;5033485;28;20054;-70
2021/06/01 02:37:38;;;;;;;8.07;3.00;;;;;;;13.99;57.65;100441.25;5033157;28;20041;-68
2021/06/01 02:40:06;;;;;;;9.52;2.78;;;;;;;13.94;57.63;100441.56;5033657;28;20087;-69
2021/06/01 02:42:34;;;;;;;4.70;2.75;;;;;;;13.94;57.51;100436.22;5034090;28;20053;-68
2021/06/01 02:45:01;;;;;;;7.43;3.10;;;;;;;13.87;58.86;100436.75;5033265;28;20053;-69
2021/06/01 02:47:28;;;;;;;7.65;2.92;;;;;;;13.77;59.17;100432.03;5038622;28;20050;-70
2021/06/01 02:49:56;;;;;;;3.92;2.60;;;;;;;13.64;58.81;100421.31;5039010;28;20390;-70
2021/06/01 02:52:23;;;;;;;7.18;3.33;;;;;;;13.67;59.78;100441.72;5038575;28;20195;-69
2021/06/01 02:54:50;;;;;;;5.20;2.85;;;;;;;13.53;60.65;100440.84;5038655;28;20135;-69
2021/06/01 02:57:19;;;;;;;3.25;2.83;;;;;;;13.39;61.06;100422.97;5038304;28;20053;-68
2021/06/01 02:59:46;;;;;;;5.88;2.47;;;;;;;13.32;61.78;100427.03;5038463;28;20049;-69
2021/06/01 03:02:13;;;;;;;5.35;3.00;;;;;;;13.31;61.44;100436.91;5020931;28;20049;-69
2021/06/01 03:04:54;;;;;;;5.43;3.03;;;;;;;13.21;61.88;100432.28;5037961;28;20065;-70
2021/06/01 03:07:21;;;;;;;4.43;2.88;;;;;;;13.14;62.29;100435.38;5037975;28;20572;-70
2021/06/01 03:09:48;;;;;;;4.70;3.20;;;;;;;13.14;61.84;100424.63;5038176;28;20073;-69
2021/06/01 03:14:49;;;;;;;4.80;2.80;;;;;;;13.07;61.64;100436.75;5038498;28;20045;-69
2021/06/01 03:17:16;;;;;;;4.63;3.17;;;;;;;12.97;61.70;100428.47;5038339;28;20046;-69
2021/06/01 03:19:43;;;;;;;3.55;2.85;;;;;;;12.96;61.94;100426.75;5053993;28;20103;-69
2021/06/01 03:22:10;;;;;;;4.53;2.78;;;;;;;12.89;62.17;100426.31;5056880;28;20053;-69
2021/06/01 03:24:36;;;;;;;3.92;2.90;;;;;;;12.86;61.72;100431.84;5058208;28;20405;-70
2021/06/01 03:27:04;;;;;;;6.25;2.60;;;;;;;12.85;61.83;100429.31;5057969;28;20044;-69
2021/06/01 03:29:30;;;;;;;4.25;2.90;;;;;;;12.78;62.53;100434.19;5058010;28;20110;-69
2021/06/01 03:31:57;;;;;;;5.53;3.03;;;;;;;12.71;63.04;100436.44;5057785;28;20094;-69
2021/06/01 03:34:25;;;;;;;4.93;3.33;;;;;;;12.59;63.55;100440.75;5058013;28;20051;-69
2021/06/01 03:36:52;;;;;;;3.60;2.88;;;;;;;12.53;64.29;100421.56;5057510;28;20430;-69
2021/06/01 03:39:20;;;;;;;8.20;3.00;;;;;;;12.49;64.91;100429.78;5057964;28;20053;-69
2021/06/01 03:41:48;;;;;;;6.00;3.40;;;;;;;12.46;65.74;100429.13;5057703;28;20048;-69
2021/06/01 03:44:15;;;;;;;6.78;3.25;;;;;;;12.38;66.08;100428.75;5057528;28;20049;-68
2021/06/01 03:46:42;;;;;;;4.35;3.13;;;;;;;12.31;65.95;100428.31;5057493;28;20427;-70
2021/06/01 03:49:09;;;;;;;5.28;2.95;;;;;;;12.22;65.78;100427.91;5057823;28;20135;-69
2021/06/01 03:51:36;;;;;;;7.45;2.67;;;;;;;12.22;65.61;100433.25;5057385;28;20443;-69
2021/06/01 03:54:03;;;;;;;6.18;3.42;;;;;;;12.30;65.74;100429.25;5057290;28;20096;-69
2021/06/01 03:56:37;;;;;;;7.00;3.10;;;;;;;12.32;66.16;100427.34;5057129;28;20060;-69
2021/06/01 03:59:05;;;;;;;8.05;3.25;;;;;;;12.24;66.52;100433.19;5056286;28;20053;-69
2021/06/01 04:01:31;;;;;;;4.10;2.70;;;;;;;12.26;66.10;100444.63;5057572;28;20394;-69
2021/06/01 04:03:58;;;;;;;7.30;3.10;;;;;;;12.29;65.77;100439.09;5056829;28;20439;-69
2021/06/01 04:06:25;;;;;;;4.22;2.90;;;;;;;12.27;66.36;100434.81;5057499;28;20048;-69
2021/06/01 04:08:52;;;;;;;5.88;3.50;;;;;;;12.23;66.87;100439.50;5057311;28;20064;-69
2021/06/01 04:11:19;;;;;;;6.25;3.00;;;;;;;12.18;66.75;100436.25;5057194;28;20331;-69
2021/06/01 04:13:45;;;;;;;5.03;2.88;;;;;;;12.26;66.57;100439.28;5055850;28;20342;-69
2021/06/01 04:16:12;;;;;;;6.07;4.07;;;;;;;12.24;66.76;100441.22;5057047;28;20052;-69
2021/06/01 04:18:40;;;;;;;3.60;3.20;;;;;;;12.28;66.96;100448.09;5047299;28;20443;-69
2021/06/01 04:21:07;;;;;;;6.90;3.75;;;;;;;12.33;66.82;100445.13;5037204;28;20045;-69
2021/06/01 04:23:34;;;;;;;8.88;3.05;;;;;;;12.31;66.57;100445.22;5036832;28;20084;-69
2021/06/01 04:26:00;;;;;;;6.63;3.47;;;;;;;12.28;66.81;100445.41;5019708;28;20053;-69
2021/06/01 04:28:27;;;;;;;5.63;3.08;;;;;;;12.34;67.38;100437.00;5035662;28;20049;-69
2021/06/01 04:30:54;;;;;;;3.58;2.90;;;;;;;12.39;66.04;100431.34;5036729;28;20046;-70
2021/06/01 04:33:20;;;;;;;4.93;3.20;;;;;;;12.43;65.54;100430.16;5036616;28;20057;-70
2021/06/01 04:35:47;;;;;;;6.97;3.42;;;;;;;12.48;67.00;100441.44;5035561;28;20072;-69
2021/06/01 04:38:13;;;;;;;6.63;3.40;;;;;;;12.54;66.52;100432.19;5036847;28;20100;-70
2021/06/01 04:40:40;;;;;;;3.72;3.15;;;;;;;12.52;66.85;100434.06;5035790;28;20065;-69
2021/06/01 04:43:07;;;;;;;4.93;3.42;;;;;;;12.60;66.27;100436.25;5036415;28;20053;-70
2021/06/01 04:45:34;;;;;;;5.03;2.88;;;;;;;12.67;65.64;100436.72;5036297;28;20103;-68
2021/06/01 04:48:01;;;;;;;5.32;3.45;;;;;;;12.78;65.19;100431.50;5035527;28;20057;-71
2021/06/01 04:50:27;;;;;;;4.75;3.40;;;;;;;12.80;65.36;100437.63;5036410;28;20434;-69
2021/06/01 04:52:55;;;;;;;4.93;3.00;;;;;;;12.80;65.84;100434.94;5035353;28;20103;-69
2021/06/01 04:55:22;;;;;;;6.45;2.95;;;;;;;12.86;64.13;100426.50;5035375;28;20053;-69
2021/06/01 04:57:48;;;;;;;6.72;2.83;;;;;;;13.08;63.55;100440.28;5035112;28;20097;-70
2021/06/01 05:00:16;;;;;;;5.20;2.60;;;;;;;13.20;61.90;100434.09;5036332;28;20382;-69
2021/06/01 05:02:42;;;;;;;3.72;2.90;;;;;;;13.34;61.99;100435.00;5036008;28;20323;-69
2021/06/01 05:05:10;;;;;;;4.28;2.63;;;;;;;13.46;61.46;100438.69;5034824;28;20072;-69
2021/06/01 05:07:36;;;;;;;4.82;2.92;;;;;;;13.60;60.89;100441.25;5034455;28;20053;-69
2021/06/01 05:10:04;;;;;;;4.95;3.15;;;;;;;13.53;61.23;100426.56;5040897;28;20049;-71
2021/06/01 05:12:33;;;;;;;7.45;3.67;;;;;;;13.67;60.92;100422.94;5046131;28;20049;-69
2021/06/01 05:15:00;;;;;;;4.97;3.20;;;;;;;13.75;60.05;100435.78;5037613;28;20346;-70
2021/06/01 05:17:27;;;;;;;4.95;2.60;;;;;;;13.84;59.97;100424.44;5035800;28;20079;-70
2021/06/01 05:19:54;;;;;;;4.53;3.10;;;;;;;13.90;59.36;100429.34;5035768;28;20053;-71
2021/06/01 05:22:21;;;;;;;7.18;2.88;;;;;;;13.94;58.20;100414.75;5046913;28;20071;-71
2021/06/01 05:24:48;;;;;;;4.40;2.80;;;;;;;14.05;58.38;100421.19;5055603;28;20056;-71
2021/06/01 05:27:15;;;;;;;5.47;2.60;;;;;;;14.11;57.15;100418.06;5055284;28;20397;-71
2021/06/01 05:29:47;;;;;;;4.10;2.75;;;;;;;14.13;57.81;100422.31;5055350;28;20045;-71
2021/06/01 05:35:03;;;;;;;4.80;3.03;;;;;;;14.32;56.27;100422.84;5055633;28;20288;-70
2021/06/01 05:37:35;;;;;;;4.68;2.88;;;;;;;14.29;56.57;100420.38;5054914;28;20103;-72
2021/06/01 05:40:04;;;;;;;5.43;3.08;;;;;;;14.38;57.03;100431.28;5055428;28;20045;-72
2021/06/01 05:42:30;;;;;;;7.68;3.08;;;;;;;14.45;57.23;100431.72;5055476;28;20077;-76
2021/06/01 05:44:57;;;;;;;3.00;2.70;;;;;;;14.46;57.09;100425.38;5039958;28;20084;-75
2021/06/01 05:47:23;;;;;;;3.45;2.67;;;;;;;14.52;57.38;100422.25;5040970;28;20050;-77
2021/06/01 05:49:50;;;;;;;4.85;3.00;;;;;;;14.61;56.94;100430.59;5044007;28;20064;-72
2021/06/01 05:52:17;;;;;;;3.80;2.97;;;;;;;14.66;56.13;100418.50;5035983;28;20044;-72
2021/06/01 05:54:43;;;;;;;5.65;3.03;;;;;;;14.66;56.27;100412.31;5045677;28;20069;-71
2021/06/01 05:57:10;;;;;;;7.03;3.25;;;;;;;14.79;55.58;100420.31;5044086;28;20045;-73
2021/06/01 05:59:37;;;;;;;4.03;2.65;;;;;;;14.84;55.50;100406.53;5044572;28;20053;-73
2021/06/01 06:02:04;;;;;;;4.43;3.20;;;;;;;14.93;56.34;100424.69;5045246;28;20102;-75
2021/06/01 06:04:31;;;;;;;3.63;2.65;;;;;;;14.86;57.34;100424.25;5045529;28;20102;-73
2021/06/01 06:06:57;;;;;;;6.93;2.70;;;;;;;14.88;57.81;100416.09;5044580;28;20053;-73
2021/06/01 06:09:24;;;;;;;5.30;2.83;;;;;;;14.92;56.83;100418.44;5044161;28;20076;-77
2021/06/01 06:11:51;;;;;;;6.22;2.83;;;;;;;15.12;55.18;100413.38;5045679;28;20045;-74
2021/06/01 06:14:17;;;;;;;5.18;2.92;;;;;;;15.24;54.52;100416.94;5043646;28;20111;-73
2021/06/01 06:16:51;;;;;;;6.13;2.65;;;;;;;15.28;54.68;100412.19;5046551;28;20072;-75
2021/06/01 06:19:17;;;;;;;4.68;2.65;;;;;;;15.38;54.14;100415.03;5045176;28;20055;-73
2021/06/01 06:21:44;;;;;;;4.03;2.13;;;;;;;15.39;55.13;100416.75;5048133;28;20098;-73
2021/06/01 06:24:11;;;;;;;3.97;3.00;;;;;;;15.36;55.64;100409.75;5048513;28;20449;-74
2021/06/01 06:26:37;;;;;;;2.97;2.40;;;;;;;15.43;55.42;100413.69;5047395;28;20385;-73
2021/06/01 06:29:04;;;;;;;4.90;3.10;;;;;;;15.47;55.75;100414.31;5047648;28;20103;-74
2021/06/01 06:31:31;;;;;;;3.70;2.47;;;;;;;15.42;55.80;100403.91;5049371;28;20052;-73
2021/06/01 06:33:58;;;;;;;4.68;2.80;;;;;;;15.62;53.86;100401.50;5047824;28;20047;-74
2021/06/01 06:36:24;;;;;;;5.53;2.42;;;;;;;15.67;53.32;100409.19;5041626;28;20103;-77
2021/06/01 06:38:51;;;;;;;3.10;2.40;;;;;;;15.77;52.92;100403.94;5037836;28;20057;-74
2021/06/01 06:41:18;;;;;;;3.58;2.55;;;;;;;15.83;53.23;100407.03;5038748;28;20418;-75
2021/06/01 06:43:50;;;;;;;3.70;2.30;;;;;;;16.01;52.06;100410.09;5048330;28;20098;-78
2021/06/01 06:46:26;;;;;;;5.63;2.17;;;;;;;16.06;52.87;100416.97;5052380;28;20103;-74
2021/06/01 06:48:54;;;;;;;4.35;2.33;;;;;;;16.09;52.73;100412.19;5051677;28;20441;-71
2021/06/01 06:51:22;;;;;;;3.38;2.17;;;;;;;16.29;51.21;100407.03;5058803;28;20057;-70
2021/06/01 06:53:53;;;;;;;4.78;2.40;;;;;;;16.35;51.79;100403.81;5058373;28;20041;-70
2021/06/01 06:56:23;;;;;;;4.22;2.28;;;;;;;16.58;51.14;100406.47;5041274;28;20115;-71
2021/06/01 06:58:50;;;;;;;3.80;2.20;;;;;;;16.55;50.91;100406.72;5038711;28;20049;-71
2021/06/01 07:01:17;;;;;;;4.30;2.17;;;;;;;16.59;50.31;100396.53;5038575;28;20103;-71
2021/06/01 07:03:44;;;;;;;3.30;2.08;;;;;;;16.61;51.38;100402.66;5038404;28;20061;-78
2021/06/01 07:06:11;;;;;;;4.05;2.50;;;;;;;16.70;50.94;100396.50;5038247;28;20059;-70
2021/06/01 07:08:38;;;;;;;4.05;2.53;;;;;;;16.74;51.03;100397.09;5038288;28;20435;-73
2021/06/01 07:11:05;;;;;;;5.57;2.75;;;;;;;16.75;51.83;100393.41;5038217;28;20088;-72
2021/06/01 07:13:44;;;;;;;6.30;2.45;;;;;;;17.00;49.38;100399.44;5046315;28;20397;-72
2021/06/01 07:16:11;;;;;;;2.60;2.33;;;;;;;17.29;48.00;100404.22;5056698;28;20084;-71
2021/06/01 07:18:40;;;;;;;7.90;2.58;;;;;;;17.33;48.49;100397.59;5054741;28;20041;-70
2021/06/01 07:21:09;;;;;;;3.75;2.60;;;;;;;17.30;52.06;100400.53;5023720;28;20111;-74
2021/06/01 07:23:36;;;;;;;5.63;2.63;;;;;;;17.27;53.05;100398.13;5047933;28;20107;-70
2021/06/01 07:26:04;;;;;;;6.90;2.60;;;;;;;17.40;53.19;100389.81;5046918;28;20115;-74
2021/06/01 07:28:31;;;;;;;10.93;2.60;;;;;;;17.36;54.02;100390.09;5041354;28;20042;-73
2021/06/01 07:31:05;;;;;;;4.95;2.50;;;;;;;17.44;53.81;100397.50;5051335;28;20057;-72
2021/06/01 07:33:33;;;;;;;4.55;2.67;;;;;;;17.49;51.79;100380.94;5038177;28;20099;-76
2021/06/01 07:36:00;;;;;;;10.07;2.50;;;;;;;17.59;50.08;100384.53;5037892;28;20064;-70
2021/06/01 07:38:28;;;;;;;5.45;2.30;;;;;;;17.62;51.86;100388.81;5040502;28;20103;-73
2021/06/01 07:40:55;;;;;;;18.42;3.50;;;;;;;17.71;53.39;100379.88;5040498;28;20104;-74
2021/06/01 07:43:22;;;;;;;7.28;2.42;;;;;;;17.82;52.31;100381.63;5036994;28;20140;-73
2021/06/01 07:45:49;;;;;;;3.95;2.20;;;;;;;17.96;50.78;100382.25;5037816;28;20107;-74
2021/06/01 07:48:16;;;;;;;10.75;2.15;;;;;;;18.12;47.03;100379.09;5048033;28;20393;-73
2021/06/01 07:50:42;;;;;;;3.92;2.53;;;;;;;18.24;47.57;100372.56;5056376;28;20422;-75
2021/06/01 07:53:09;;;;;;;7.93;2.30;;;;;;;18.35;48.26;100386.97;5057402;28;20397;-73
2021/06/01 07:55:36;;;;;;;4.97;2.63;;;;;;;18.31;50.13;100373.72;5052389;28;20049;-73
2021/06/01 07:58:02;;;;;;;9.02;2.47;;;;;;;18.42;49.19;100382.72;5037528;28;20111;-73
2021/06/01 08:00:29;;;;;;;6.63;3.85;;;;;;;18.37;49.89;100372.34;5042541;28;20057;-73
2021/06/01 08:02:56;;;;;;;6.43;2.10;;;;;;;18.46;48.69;100373.31;5037108;28;20107;-72
2021/06/01 08:05:23;;;;;;;8.95;2.17;;;;;;;18.30;49.64;100347.72;5036149;28;20061;-73
2021/06/01 08:07:50;;;;;;;7.38;2.55;;;;;;;18.42;48.67;100361.94;5037001;28;20046;-70
2021/06/01 08:10:21;;;;;;;2.55;2.10;;;;;;;18.51;49.09;100362.97;5037067;28;20046;-70
2021/06/01 08:12:49;;;;;;;2.80;2.05;;;;;;;18.49;49.46;100366.78;5037418;28;20072;-70
2021/06/01 08:15:20;;;;;;;6.13;2.45;;;;;;;18.68;49.34;100364.09;5037378;28;20060;-69
2021/06/01 08:17:50;;;;;;;4.07;1.98;;;;;;;18.97;44.61;100357.81;5039122;28;20045;-70
2021/06/01 08:22:58;;;;;;;2.78;2.00;;;;;;;19.02;43.31;100327.69;5042038;28;20041;-70
2021/06/01 08:25:25;;;;;;;3.88;2.05;;;;;;;19.26;42.20;100348.00;5049431;28;20069;-71
2021/06/01 08:27:53;;;;;;;5.28;1.80;;;;;;;19.44;40.73;100342.66;5044010;28;20102;-72
2021/06/01 08:30:21;;;;;;;4.57;1.90;;;;;;;19.59;41.67;100345.75;5043857;28;20102;-70
2021/06/01 08:32:47;;;;;;;2.92;2.00;;;;;;;19.65;41.61;100339.75;5043632;28;20098;-71
2021/06/01 08:35:15;;;;;;;7.78;1.98;;;;;;;19.67;42.35;100340.44;5049594;28;20061;-74
2021/06/01 08:37:42;;;;;;;3.05;2.25;;;;;;;19.77;42.34;100328.75;5045010;28;20049;-71
2021/06/01 08:40:09;;;;;;;6.68;2.30;;;;;;;19.90;42.11;100336.50;5041389;28;20446;-72
2021/06/01 08:42:39;;;;;;;4.55;2.00;;;;;;;19.91;41.56;100332.78;5044951;28;20513;-73
2021/06/01 08:45:08;;;;;;;5.90;1.88;;;;;;;20.02;41.71;100331.75;5050393;28;20056;-74
2021/06/01 08:47:37;;;;;;;5.63;1.80;;;;;;;20.06;40.30;100331.31;5055939;28;20381;-71
2021/06/01 08:50:06;;;;;;;7.45;1.80;;;;;;;20.03;41.75;100336.16;5045129;28;20110;-75
2021/06/01 08:52:34;;;;;;;2.67;1.85;;;;;;;20.08;42.66;100325.75;5056284;28;20107;-74
2021/06/01 08:55:02;;;;;;;8.10;2.03;;;;;;;20.33;40.38;100326.84;5046203;28;20119;-73
2021/06/01 08:57:29;;;;;;;2.25;1.70;;;;;;;20.32;41.16;100318.91;5039705;28;20073;-73
2021/06/01 08:59:55;;;;;;;1.50;1.40;;;;;;;20.38;38.67;100314.69;5036872;28;20099;-73
2021/06/01 09:02:23;;;;;;;3.72;1.63;;;;;;;20.43;39.50;100315.94;5044033;28;20469;-73
2021/06/01 09:04:56;;;;;;;5.13;1.70;;;;;;;20.47;40.02;100322.75;5050172;28;20057;-73
2021/06/01 09:07:40;;;;;;;2.10;1.67;;;;;;;20.57;41.61;100313.69;5055211;28;20103;-73
2021/06/01 09:13:34;;;;;;;3.67;1.85;;;;;;;20.65;38.62;100307.50;5055177;28;20056;-76
2021/06/01 09:21:31;;;;;;;5.40;1.90;;;;;;;20.91;38.16;100314.88;5035685;28;20056;-74
2021/06/01 09:24:00;;;;;;;2.33;1.50;;;;;;;20.88;37.32;100305.19;5035742;28;20478;-71
2021/06/01 09:26:49;;;;;;;9.05;1.83;;;;;;;20.93;37.65;100316.41;5036114;28;20053;-72
2021/06/01 09:29:16;;;;;;;3.30;1.70;;;;;;;20.96;37.53;100318.78;5035789;28;20386;-80
2021/06/01 09:31:43;;;;;;;3.90;2.22;;;;;;;21.02;37.61;100304.59;5043637;28;20060;-77
2021/06/01 09:34:10;;;;;;;3.53;1.70;;;;;;;21.21;38.16;100310.84;5046571;28;20077;-78
2021/06/01 09:36:38;;;;;;;3.63;1.85;;;;;;;21.28;37.64;100294.75;5047055;28;20053;-80
2021/06/01 09:39:08;;;;;;;2.53;1.60;;;;;;;21.43;39.17;100298.59;5043085;28;20050;-82
2021/06/01 09:41:35;;;;;;;3.73;1.63;;;;;;;21.40;38.10;100292.59;5042875;28;20079;-72
2021/06/01 09:44:04;;;;;;;1.73;1.63;;;;;;;21.61;37.13;100294.91;5038328;28;20045;-72
2021/06/01 09:46:44;;;;;;;2.83;1.70;;;;;;;21.68;37.68;100292.41;5035388;28;20068;-72
2021/06/01 09:49:14;;;;;;;5.90;2.00;;;;;;;21.76;36.68;100295.19;5037858;28;20050;-76
2021/06/01 09:51:47;;;;;;;;;;;;;;;21.80;38.92;100285.69;5047236;28;20330;-79
2021/06/01 09:54:50;;;;;;;3.92;1.52;;;;;;;21.93;36.89;100289.78;5044172;28;19925;-76
2021/06/01 09:57:26;;;;;;;3.53;1.65;;;;;;;22.09;36.86;100289.00;5024720;28;20098;-79
2021/06/01 10:00:16;;;;;;;3.83;1.77;;;;;;;22.13;35.13;100286.78;5043423;28;20680;-77
2021/06/01 10:02:46;;;;;;;2.10;1.58;;;;;;;22.04;35.36;100267.75;5062316;28;20099;-77
2021/06/01 10:05:23;;;;;;;9.63;1.63;;;;;;;22.24;36.04;100270.16;5045241;28;20065;-77
2021/06/01 10:07:51;;;;;;;1.30;1.20;;;;;;;22.42;36.07;100277.31;5047724;28;20045;-76
2021/06/01 10:10:26;;;;;;;4.32;1.55;;;;;;;22.47;35.33;100269.50;5052933;28;20415;-73
2021/06/01 10:13:02;;;;;;;3.97;1.70;;;;;;;22.57;36.37;100263.94;5041602;28;20057;-73
2021/06/01 10:15:30;;;;;;;3.10;1.65;;;;;;;22.58;33.70;100269.22;5040401;28;20107;-71
2021/06/01 10:18:02;;;;;;;6.60;1.95;;;;;;;22.69;35.33;100272.59;5037991;28;20143;-72
2021/06/01 10:20:32;;;;;;;3.00;1.50;;;;;;;22.60;34.40;100275.31;5054230;28;20052;-75
2021/06/01 10:23:00;;;;;;;1.95;1.50;;;;;;;22.78;35.50;100266.13;5048667;28;20342;-72
2021/06/01 10:25:27;;;;;;;3.22;1.83;;;;;;;23.01;34.96;100254.53;5044115;28;20087;-73
2021/06/01 10:27:59;;;;;;;1.90;1.45;;;;;;;23.02;34.13;100240.75;5052041;28;20049;-74
2021/06/01 10:30:29;;;;;;;3.78;1.77;;;;;;;23.06;33.57;100263.03;5038790;28;20049;-70
2021/06/01 10:33:02;;;;;;;3.38;2.20;;;;;;;23.13;33.73;100250.41;5035649;28;20045;-72
2021/06/01 10:35:37;;;;;;;2.72;1.60;;;;;;;23.11;32.90;100255.19;5041244;28;20053;-71
2021/06/01 10:44:43;;;;;;;3.88;1.90;;;;;;;23.33;33.28;100255.50;5041806;28;20045;-72
2021/06/01 10:51:01;;;;;;;6.10;1.60;;;;;;;23.41;32.63;100251.88;5042970;28;20041;-74
2021/06/01 10:53:14;;;;;;;4.25;1.52;;;;;;;23.37;32.02;100234.22;5039470;28;20057;-73
2021/06/01 10:55:51;;;;;;;1.77;1.60;;;;;;;23.59;31.33;100230.69;5046011;28;20045;-70
2021/06/01 10:58:30;;;;;;;2.28;1.35;;;;;;;23.54;31.63;100224.09;5042466;28;20057;-77
2021/06/01 11:04:17;;;;;;;3.38;1.75;;;;;;;23.94;31.94;100233.06;5034268;28;20080;-74
2021/06/01 11:06:54;;;;;;;2.67;1.88;;;;;;;24.06;31.33;100238.97;5036647;28;20330;-72
2021/06/01 11:09:33;;;;;;;5.68;1.65;;;;;;;24.24;30.84;100229.66;5038280;28;20048;-71
2021/06/01 11:12:18;;;;;;;2.37;1.60;;;;;;;24.27;31.09;100224.69;5046455;28;20434;-71
2021/06/01 11:14:47;;;;;;;5.80;1.80;;;;;;;24.44;30.45;100229.16;5058074;28;20364;-69
2021/06/01 11:17:14;;;;;;;5.10;1.80;;;;;;;24.58;29.93;100224.78;5057121;28;20049;-75
2021/06/01 11:19:51;;;;;;;5.95;1.52;;;;;;;24.57;30.30;100218.47;5048957;28;20120;-69
2021/06/01 11:22:25;;;;;;;5.38;1.50;;;;;;;24.56;30.17;100222.22;5058119;28;20092;-72
2021/06/01 11:29:00;;;;;;;2.83;1.52;;;;;;;24.60;30.05;100214.50;5058026;28;20446;-74
2021/06/01 11:33:35;;;;;;;2.95;1.65;;;;;;;24.41;28.84;100227.66;5058230;28;20146;-70
2021/06/01 11:36:06;;;;;;;4.30;1.50;;;;;;;24.20;29.07;100207.38;5042351;28;20046;-74
2021/06/01 11:44:27;;;;;;;4.60;1.45;;;;;;;24.74;27.93;100204.66;5038288;28;20053;-71
2021/06/01 11:47:52;;;;;;;2.90;1.38;;;;;;;24.59;27.63;100199.19;5037992;28;20104;-71
2021/06/01 11:52:32;;;;;;;4.40;1.42;;;;;;;24.96;29.20;100205.66;5047554;28;20383;-72
2021/06/01 11:55:08;;;;;;;5.03;1.50;;;;;;;24.80;26.05;100196.59;5036845;28;20140;-70
2021/06/01 12:02:00;;;;;;;6.55;1.45;;;;;;;24.74;26.03;100194.59;5041895;28;20048;-72
2021/06/01 12:03:20;;;;;;;3.30;1.50;;;;;;;24.96;27.12;100186.56;5057034;28;20049;-72
2021/06/01 12:11:33;;;;;;;4.07;1.25;;;;;;;25.32;25.01;100183.03;5056548;28;20332;-74
2021/06/01 12:14:26;;;;;;;5.78;1.30;;;;;;;25.61;25.88;100181.31;5055844;28;20045;-73
2021/06/01 12:17:15;;;;;;;4.90;1.25;;;;;;;25.67;25.48;100176.13;5056452;28;20080;-76
2021/06/01 12:19:42;;;;;;;2.83;1.38;;;;;;;25.33;25.04;100184.72;5039900;28;20053;-71
2021/06/01 12:22:08;;;;;;;3.58;1.38;;;;;;;25.51;25.97;100188.94;5037793;28;20461;-71
2021/06/01 12:24:37;;;;;;;7.13;1.60;;;;;;;25.55;25.24;100183.97;5038325;28;20076;-71
2021/06/01 12:27:25;;;;;;;2.05;1.17;;;;;;;25.67;24.94;100182.44;5034753;28;20053;-71
2021/06/01 12:33:08;;;;;;;7.55;1.40;;;;;;;26.12;25.49;100167.72;5036857;28;20053;-71
2021/06/01 13:20:35;;;;;;;3.50;1.70;;;;;;;26.32;25.17;100115.97;5043780;28;20056;-73
2021/06/01 13:48:07;;;;;;;4.68;1.38;;;;;;;27.14;24.82;100093.50;5038147;28;20045;-71